createdAt,value
2018-06-05T00:02:11.197Z,96.30
2018-06-05T00:04:39.914Z,95.90
2018-06-05T00:07:08.244Z,96.00
2018-06-05T00:09:36.586Z,96.00
2018-06-05T00:12:04.901Z,96.20
2018-06-05T00:14:33.492Z,95.90
2018-06-05T00:17:01.993Z,95.80
2018-06-05T00:19:30.297Z,95.80
2018-06-05T00:21:58.637Z,95.80
2018-06-05T00:24:26.978Z,95.60
2018-06-05T00:26:55.369Z,95.80
2018-06-05T00:29:24.369Z,95.80
2018-06-05T00:31:52.824Z,95.90
2018-06-05T00:34:21.272Z,95.90
2018-06-05T00:36:49.664Z,96.10
2018-06-05T00:39:18.043Z,96.20
2018-06-05T00:41:46.388Z,95.90
2018-06-05T00:44:14.704Z,96.00
2018-06-05T00:46:43.042Z,95.90
2018-06-05T00:49:11.494Z,96.50
2018-06-05T00:51:51.192Z,96.20
2018-06-05T00:54:19.493Z,96.70
2018-06-05T00:56:48.051Z,96.40
2018-06-05T00:59:16.361Z,96.60
2018-06-05T01:01:44.816Z,96.50
2018-06-05T01:04:13.263Z,96.90
2018-06-05T01:06:41.570Z,96.80
2018-06-05T01:09:09.905Z,96.60
2018-06-05T01:11:38.222Z,96.60
2018-06-05T01:14:06.509Z,96.70
2018-06-05T01:16:34.893Z,96.90
2018-06-05T01:19:03.184Z,97.00
2018-06-05T01:21:31.457Z,97.00
2018-06-05T01:23:59.748Z,97.10
2018-06-05T01:26:28.034Z,97.10
2018-06-05T01:28:56.376Z,96.90
2018-06-05T01:31:25.641Z,96.90
2018-06-05T01:33:53.950Z,97.20
2018-06-05T01:36:22.236Z,97.40
2018-06-05T01:38:50.534Z,97.50
2018-06-05T01:41:18.828Z,97.40
2018-06-05T01:43:47.186Z,97.30
2018-06-05T01:46:15.489Z,97.60
2018-06-05T01:48:43.777Z,97.50
2018-06-05T01:51:12.110Z,97.80
2018-06-05T01:53:40.449Z,97.60
2018-06-05T01:56:08.754Z,97.60
2018-06-05T01:58:37.082Z,97.60
2018-06-05T02:01:05.458Z,98.00
2018-06-05T02:03:33.797Z,97.90
2018-06-05T02:06:02.121Z,97.90
2018-06-05T02:08:30.466Z,98.00
2018-06-05T02:10:58.815Z,97.90
2018-06-05T02:13:27.145Z,98.10
2018-06-05T02:15:55.476Z,98.40
2018-06-05T02:18:23.822Z,98.30
2018-06-05T02:20:52.152Z,98.80
2018-06-05T02:23:20.493Z,98.60
2018-06-05T02:25:48.785Z,98.30
2018-06-05T02:28:17.088Z,98.40
2018-06-05T02:30:45.415Z,98.40
2018-06-05T02:33:13.699Z,98.60
2018-06-05T02:35:42.056Z,98.60
2018-06-05T02:38:10.655Z,98.70
2018-06-05T02:40:39.115Z,98.50
2018-06-05T02:43:08.317Z,98.70
2018-06-05T02:45:37.443Z,98.90
2018-06-05T02:48:05.911Z,98.80
2018-06-05T02:50:34.256Z,98.60
2018-06-05T02:53:03.252Z,98.90
2018-06-05T02:55:31.630Z,98.70
2018-06-05T02:58:00.192Z,98.50
2018-06-05T03:00:28.861Z,98.70
2018-06-05T03:02:58.177Z,99.00
2018-06-05T03:05:26.528Z,98.90
2018-06-05T03:07:54.814Z,98.80
2018-06-05T03:10:23.115Z,99.30
2018-06-05T03:12:51.442Z,99.30
2018-06-05T03:15:19.750Z,99.10
2018-06-05T03:20:16.032Z,99.30
2018-06-05T03:22:44.372Z,99.50
2018-06-05T03:25:12.732Z,99.30
2018-06-05T03:27:41.538Z,99.30
2018-06-05T03:30:09.946Z,99.00
2018-06-05T03:32:38.294Z,99.30
2018-06-05T03:35:06.785Z,99.60
2018-06-05T03:37:35.160Z,99.50
2018-06-05T03:40:03.570Z,99.20
2018-06-05T03:42:31.949Z,99.40
2018-06-05T03:45:00.261Z,99.60
2018-06-05T03:47:28.700Z,99.80
2018-06-05T03:49:56.996Z,99.50
2018-06-05T03:52:25.463Z,99.30
2018-06-05T03:54:53.745Z,99.10
2018-06-05T03:57:22.072Z,98.90
2018-06-05T03:59:50.454Z,98.70
2018-06-05T04:02:18.802Z,98.60
2018-06-05T04:04:47.122Z,98.30
2018-06-05T04:07:15.462Z,98.10
2018-06-05T04:09:43.817Z,97.80
2018-06-05T04:12:12.165Z,97.60
2018-06-05T04:14:40.577Z,97.40
2018-06-05T04:17:08.930Z,97.00
2018-06-05T04:19:37.265Z,96.90
2018-06-05T04:22:05.646Z,96.70
2018-06-05T04:24:33.997Z,96.60
2018-06-05T04:27:02.380Z,96.40
2018-06-05T04:29:30.723Z,96.30
2018-06-05T04:31:59.113Z,96.10
2018-06-05T04:34:27.395Z,96.00
2018-06-05T04:36:56.036Z,96.30
2018-06-05T04:39:24.776Z,96.10
2018-06-05T04:41:53.070Z,96.00
2018-06-05T04:44:21.593Z,96.10
2018-06-05T04:46:49.888Z,96.10
2018-06-05T04:49:18.210Z,95.70
2018-06-05T04:51:46.511Z,96.10
2018-06-05T04:54:14.795Z,95.90
2018-06-05T04:56:43.094Z,96.20
2018-06-05T04:59:11.415Z,95.50
2018-06-05T05:01:39.730Z,95.40
2018-06-05T05:04:08.043Z,95.80
2018-06-05T05:06:36.346Z,95.10
2018-06-05T05:09:06.414Z,95.20
2018-06-05T05:11:34.726Z,95.40
2018-06-05T05:14:03.184Z,95.60
2018-06-05T05:16:31.767Z,96.00
2018-06-05T05:19:00.245Z,94.90
2018-06-05T05:21:28.685Z,94.50
2018-06-05T05:23:57.099Z,94.70
2018-06-05T05:26:25.580Z,94.20
2018-06-05T05:28:54.066Z,94.60
2018-06-05T05:31:22.511Z,94.70
2018-06-05T05:33:50.991Z,94.80
2018-06-05T05:36:19.551Z,94.60
2018-06-05T05:38:48.033Z,94.90
2018-06-05T05:41:16.541Z,94.40
2018-06-05T05:43:44.850Z,94.50
2018-06-05T05:46:13.357Z,95.20
2018-06-05T05:48:41.771Z,95.10
2018-06-05T05:51:10.155Z,95.20
2018-06-05T05:53:38.544Z,95.70
2018-06-05T05:56:07.056Z,94.90
2018-06-05T05:58:35.394Z,94.50
2018-06-05T06:01:03.904Z,94.50
2018-06-05T06:03:32.425Z,94.90
2018-06-05T06:06:00.851Z,94.40
2018-06-05T06:08:29.216Z,95.30
2018-06-05T06:10:57.627Z,94.40
2018-06-05T06:13:25.941Z,94.90
2018-06-05T06:15:54.309Z,95.10
2018-06-05T06:18:22.753Z,94.40
2018-06-05T06:20:51.387Z,94.80
2018-06-05T06:23:19.970Z,95.90
2018-06-05T06:25:48.273Z,95.10
2018-06-05T06:28:16.611Z,95.10
2018-06-05T06:30:44.914Z,95.20
2018-06-05T06:33:13.471Z,93.70
2018-06-05T06:35:41.790Z,94.00
2018-06-05T06:38:10.166Z,93.30
2018-06-05T06:40:38.449Z,93.60
2018-06-05T06:43:06.854Z,93.60
2018-06-05T06:45:35.301Z,94.40
2018-06-05T06:48:03.617Z,93.20
2018-06-05T06:50:31.894Z,93.10
2018-06-05T06:53:00.199Z,93.40
2018-06-05T06:55:28.573Z,93.40
2018-06-05T06:57:57.007Z,93.00
2018-06-05T07:00:25.444Z,93.40
2018-06-05T07:02:53.733Z,92.80
2018-06-05T07:05:22.101Z,92.40
2018-06-05T07:07:50.493Z,92.90
2018-06-05T07:10:18.894Z,93.00
2018-06-05T07:12:47.266Z,92.60
2018-06-05T07:15:16.528Z,92.30
2018-06-05T07:17:44.828Z,92.20
2018-06-05T07:20:13.447Z,92.30
2018-06-05T07:22:41.737Z,92.50
2018-06-05T07:25:10.023Z,92.40
2018-06-05T07:27:38.328Z,92.50
2018-06-05T07:30:06.651Z,92.60
2018-06-05T07:32:34.926Z,91.90
2018-06-05T07:35:03.233Z,91.70
2018-06-05T07:37:31.543Z,92.00
2018-06-05T07:40:00.122Z,91.30
2018-06-05T07:42:28.428Z,91.60
2018-06-05T07:44:56.707Z,91.60
2018-06-05T07:47:25.014Z,91.10
2018-06-05T07:49:53.318Z,91.10
2018-06-05T07:52:21.636Z,90.90
2018-06-05T07:54:49.929Z,91.40
2018-06-05T07:57:18.325Z,91.40
2018-06-05T07:59:46.685Z,91.20
2018-06-05T08:02:14.994Z,90.70
2018-06-05T08:04:43.293Z,90.90
2018-06-05T08:07:11.633Z,90.00
2018-06-05T08:09:39.928Z,90.30
2018-06-05T08:12:08.208Z,89.80
2018-06-05T08:14:36.502Z,90.80
2018-06-05T08:17:04.861Z,91.20
2018-06-05T08:19:33.151Z,91.00
2018-06-05T08:22:01.476Z,88.20
2018-06-05T08:24:29.819Z,89.70
2018-06-05T08:26:58.085Z,89.60
2018-06-05T08:29:26.370Z,91.30
2018-06-05T08:31:54.664Z,89.70
2018-06-05T08:34:22.977Z,90.00
2018-06-05T08:36:51.300Z,90.00
2018-06-05T08:39:19.589Z,88.70
2018-06-05T08:41:47.946Z,90.00
2018-06-05T08:44:16.233Z,88.00
2018-06-05T08:46:44.532Z,87.60
2018-06-05T08:49:12.817Z,88.50
2018-06-05T08:51:41.122Z,87.60
2018-06-05T08:54:09.456Z,87.00
2018-06-05T08:56:37.750Z,87.80
2018-06-05T08:59:06.132Z,88.90
2018-06-05T09:01:34.456Z,88.30
2018-06-05T09:04:02.761Z,85.90
2018-06-05T09:06:31.234Z,87.20
2018-06-05T09:08:59.534Z,86.30
2018-06-05T09:11:27.848Z,86.70
2018-06-05T09:13:56.263Z,86.60
2018-06-05T09:16:24.538Z,85.80
2018-06-05T09:18:52.840Z,87.20
2018-06-05T09:21:21.132Z,85.90
2018-06-05T09:23:49.445Z,87.30
2018-06-05T09:26:17.733Z,85.90
2018-06-05T09:28:46.102Z,85.20
2018-06-05T09:31:14.389Z,86.50
2018-06-05T09:33:42.693Z,86.20
2018-06-05T09:36:11.063Z,85.20
2018-06-05T09:38:39.381Z,83.90
2018-06-05T09:41:07.673Z,83.00
2018-06-05T09:43:35.977Z,81.40
2018-06-05T09:46:04.290Z,81.70
2018-06-05T09:48:32.662Z,80.70
2018-06-05T09:51:00.973Z,81.00
2018-06-05T09:53:29.302Z,81.70
2018-06-05T09:55:57.694Z,84.00
2018-06-05T09:58:26.109Z,81.70
2018-06-05T10:00:54.283Z,80.90
2018-06-05T10:03:22.638Z,79.40
2018-06-05T10:05:50.993Z,80.40
2018-06-05T10:08:19.339Z,78.70
2018-06-05T10:10:47.738Z,78.20
2018-06-05T10:13:16.156Z,79.10
2018-06-05T10:15:44.415Z,77.80
2018-06-05T10:18:12.753Z,77.60
2018-06-05T10:20:41.057Z,77.90
2018-06-05T10:23:09.336Z,78.50
2018-06-05T10:25:37.877Z,76.70
2018-06-05T10:28:06.389Z,74.20
2018-06-05T10:30:35.751Z,74.40
2018-06-05T10:33:04.069Z,72.80
2018-06-05T10:35:32.373Z,75.00
2018-06-05T10:38:00.791Z,73.50
2018-06-05T10:40:29.256Z,70.90
2018-06-05T10:42:57.746Z,71.50
2018-06-05T10:45:26.154Z,74.30
2018-06-05T10:47:54.474Z,74.80
2018-06-05T10:50:22.803Z,71.20
2018-06-05T10:52:51.160Z,71.20
2018-06-05T10:55:19.556Z,72.60
2018-06-05T10:57:54.590Z,68.50
2018-06-05T11:00:22.948Z,66.90
2018-06-05T11:02:51.258Z,66.10
2018-06-05T11:05:19.528Z,65.90
2018-06-05T11:07:48.032Z,63.00
2018-06-05T11:10:16.464Z,64.30
2018-06-05T11:12:44.867Z,63.50
2018-06-05T11:15:13.180Z,64.00
2018-06-05T11:17:41.605Z,66.10
2018-06-05T11:20:09.944Z,65.70
2018-06-05T11:22:38.234Z,66.70
2018-06-05T11:25:06.598Z,67.40
2018-06-05T11:27:35.103Z,65.40
2018-06-05T11:30:04.017Z,66.50
2018-06-05T11:32:32.299Z,67.00
2018-06-05T11:35:00.643Z,65.10
2018-06-05T11:37:29.093Z,63.00
2018-06-05T11:39:57.508Z,64.70
2018-06-05T11:42:25.927Z,65.50
2018-06-05T11:44:54.220Z,63.20
2018-06-05T11:47:22.989Z,59.90
2018-06-05T11:49:51.382Z,60.80
2018-06-05T11:52:19.692Z,61.30
2018-06-05T11:54:48.198Z,59.60
2018-06-05T11:57:16.682Z,61.20
2018-06-05T11:59:45.153Z,58.70
2018-06-05T12:02:13.692Z,52.90
2018-06-05T12:04:42.180Z,54.80
2018-06-05T12:07:10.591Z,54.60
2018-06-05T12:09:38.921Z,52.70
2018-06-05T12:12:07.412Z,53.30
2018-06-05T12:14:35.747Z,50.40
2018-06-05T12:17:04.049Z,52.40
2018-06-05T12:19:32.392Z,48.70
2018-06-05T12:22:00.776Z,46.90
2018-06-05T12:24:29.217Z,47.40
2018-06-05T12:26:57.538Z,46.60
2018-06-05T12:29:26.002Z,46.60
2018-06-05T12:31:54.397Z,48.30
2018-06-05T12:34:22.822Z,50.80
2018-06-05T12:36:51.132Z,47.10
2018-06-05T12:39:19.593Z,48.00
2018-06-05T12:41:48.069Z,49.80
2018-06-05T12:44:16.296Z,53.40
2018-06-05T12:46:44.874Z,52.20
2018-06-05T12:49:19.634Z,51.90
2018-06-05T12:51:47.985Z,49.00
2018-06-05T12:54:16.405Z,48.00
2018-06-05T12:56:44.910Z,48.10
2018-06-05T12:59:13.390Z,44.30
2018-06-05T13:01:41.754Z,45.50
2018-06-05T13:04:10.120Z,45.70
2018-06-05T13:06:39.495Z,45.80
2018-06-05T13:09:08.232Z,47.20
2018-06-05T13:11:36.649Z,51.00
2018-06-05T13:14:04.957Z,49.40
2018-06-05T13:16:33.365Z,50.20
2018-06-05T13:19:01.675Z,50.50
2018-06-05T13:21:29.977Z,52.20
2018-06-05T13:23:58.502Z,49.00
2018-06-05T13:26:26.921Z,49.30
2018-06-05T13:28:55.190Z,51.60
2018-06-05T13:31:23.597Z,51.90
2018-06-05T13:33:51.898Z,54.00
2018-06-05T13:36:20.339Z,53.70
2018-06-05T13:38:48.719Z,54.40
2018-06-05T13:41:17.166Z,54.60
2018-06-05T13:43:45.792Z,52.80
2018-06-05T13:46:14.232Z,50.80
2018-06-05T13:48:42.505Z,53.00
2018-06-05T13:51:10.873Z,53.90
2018-06-05T13:53:39.156Z,53.50
2018-06-05T13:56:07.704Z,53.60
2018-06-05T13:58:35.968Z,52.80
2018-06-05T14:01:04.302Z,53.40
2018-06-05T14:03:32.596Z,48.70
2018-06-05T14:06:00.895Z,47.20
2018-06-05T14:08:29.325Z,49.60
2018-06-05T14:10:57.620Z,51.40
2018-06-05T14:13:25.908Z,52.10
2018-06-05T14:15:54.239Z,52.90
2018-06-05T14:18:22.621Z,49.10
2018-06-05T14:20:51.233Z,48.90
2018-06-05T14:23:22.499Z,51.40
2018-06-05T14:25:50.782Z,48.80
2018-06-05T14:28:19.231Z,50.70
2018-06-05T14:30:48.356Z,52.30
2018-06-05T14:33:16.719Z,53.70
2018-06-05T14:35:45.066Z,53.90
2018-06-05T14:40:41.500Z,55.60
2018-06-05T14:43:09.809Z,55.10
2018-06-05T14:45:38.253Z,53.60
2018-06-05T14:48:06.708Z,53.40
2018-06-05T14:50:35.332Z,53.00
2018-06-05T14:53:03.723Z,53.20
2018-06-05T14:55:32.174Z,52.70
2018-06-05T14:58:00.469Z,52.00
2018-06-05T15:00:28.766Z,50.60
2018-06-05T15:02:57.095Z,50.50
2018-06-05T15:05:25.503Z,51.10
2018-06-05T15:07:53.825Z,52.10
2018-06-05T15:10:22.108Z,52.60
2018-06-05T15:12:50.536Z,52.50
2018-06-05T15:15:18.952Z,52.70
2018-06-05T15:17:47.384Z,52.80
2018-06-05T15:20:15.811Z,53.80
2018-06-05T15:22:44.101Z,54.30
2018-06-05T15:25:12.393Z,51.20
2018-06-05T15:27:40.797Z,51.40
2018-06-05T15:30:11.216Z,52.10
2018-06-05T15:32:39.566Z,51.00
2018-06-05T15:35:07.843Z,50.30
2018-06-05T15:37:36.242Z,50.80
2018-06-05T15:40:04.660Z,51.50
2018-06-05T15:42:33.432Z,50.30
2018-06-05T15:45:02.645Z,50.20
2018-06-05T15:49:59.850Z,46.60
2018-06-05T15:52:28.241Z,44.10
2018-06-05T15:54:56.692Z,44.70
2018-06-05T15:57:25.003Z,43.70
2018-06-05T15:59:53.304Z,43.30
2018-06-05T16:02:21.613Z,39.70
2018-06-05T16:04:50.096Z,37.70
2018-06-05T16:07:18.415Z,36.40
2018-06-05T16:09:46.854Z,36.80
2018-06-05T16:12:15.274Z,36.30
2018-06-05T16:14:43.648Z,36.60
2018-06-05T16:17:12.157Z,37.10
2018-06-05T16:19:40.448Z,35.20
2018-06-05T16:22:08.852Z,35.60
2018-06-05T16:24:37.380Z,36.70
2018-06-05T16:27:05.725Z,35.40
2018-06-05T16:29:34.151Z,35.60
2018-06-05T16:32:02.581Z,36.00
2018-06-05T16:34:30.994Z,35.20
2018-06-05T16:36:59.293Z,34.30
2018-06-05T16:39:27.777Z,34.40
2018-06-05T16:41:56.107Z,33.00
2018-06-05T16:44:24.434Z,32.50
2018-06-05T16:46:52.878Z,32.30
2018-06-05T16:49:21.524Z,32.50
2018-06-05T16:51:49.883Z,32.80
2018-06-05T16:54:18.281Z,34.20
2018-06-05T16:56:46.585Z,32.80
2018-06-05T16:59:14.961Z,32.90
2018-06-05T17:01:43.241Z,31.90
2018-06-05T17:04:11.632Z,32.60
2018-06-05T17:06:40.088Z,32.30
2018-06-05T17:09:08.402Z,33.60
2018-06-05T17:11:36.806Z,33.20
2018-06-05T17:14:05.315Z,33.40
2018-06-05T17:16:33.603Z,32.90
2018-06-05T17:19:01.932Z,33.10
2018-06-05T17:21:30.517Z,33.80
2018-06-05T17:23:58.969Z,35.50
2018-06-05T17:26:27.273Z,35.40
2018-06-05T17:28:55.596Z,34.50
2018-06-05T17:31:24.010Z,34.10
2018-06-05T17:33:52.433Z,34.80
2018-06-05T17:36:20.972Z,34.60
2018-06-05T17:38:49.276Z,34.20
2018-06-05T17:41:17.852Z,34.60
2018-06-05T17:43:46.201Z,34.10
2018-06-05T17:46:14.614Z,34.10
2018-06-05T17:48:43.039Z,34.10
2018-06-05T17:51:11.410Z,34.20
2018-06-05T17:53:39.704Z,34.50
2018-06-05T17:56:08.029Z,34.70
2018-06-05T17:58:36.346Z,34.70
2018-06-05T18:01:04.789Z,35.50
2018-06-05T18:03:33.174Z,35.50
2018-06-05T18:06:01.541Z,35.70
2018-06-05T18:08:29.842Z,36.50
2018-06-05T18:10:58.133Z,37.10
2018-06-05T18:13:26.408Z,37.30
2018-06-05T18:15:54.952Z,37.70
2018-06-05T18:18:23.588Z,38.70
2018-06-05T18:20:52.161Z,40.50
2018-06-05T18:23:20.500Z,41.60
2018-06-05T18:25:48.809Z,42.40
2018-06-05T18:28:17.265Z,43.30
2018-06-05T18:30:45.591Z,44.90
2018-06-05T18:33:13.929Z,45.90
2018-06-05T18:35:42.313Z,46.70
2018-06-05T18:38:10.601Z,47.50
2018-06-05T18:40:38.918Z,48.30
2018-06-05T18:43:07.224Z,50.00
2018-06-05T18:45:35.694Z,50.90
2018-06-05T18:48:04.201Z,51.10
2018-06-05T18:50:32.500Z,53.40
2018-06-05T18:53:00.940Z,54.00
2018-06-05T18:55:29.253Z,56.90
2018-06-05T18:57:57.549Z,55.90
2018-06-05T19:00:26.015Z,57.00
2018-06-05T19:02:54.506Z,57.80
2018-06-05T19:05:22.975Z,58.30
2018-06-05T19:07:51.467Z,59.70
2018-06-05T19:10:19.974Z,59.40
2018-06-05T19:12:48.551Z,60.10
2018-06-05T19:15:16.987Z,59.80
2018-06-05T19:17:45.368Z,60.70
2018-06-05T19:20:13.791Z,61.60
2018-06-05T19:22:42.147Z,61.40
2018-06-05T19:25:10.433Z,62.20
2018-06-05T19:27:38.938Z,63.10
2018-06-05T19:30:07.261Z,65.50
2018-06-05T19:32:35.947Z,66.10
2018-06-05T19:35:04.277Z,67.40
2018-06-05T19:37:32.610Z,67.60
2018-06-05T19:40:01.286Z,68.00
2018-06-05T19:42:29.788Z,68.00
2018-06-05T19:44:58.109Z,68.90
2018-06-05T19:47:26.413Z,70.50
2018-06-05T19:49:54.850Z,70.20
2018-06-05T19:52:23.309Z,73.80
2018-06-05T19:54:51.596Z,74.40
2018-06-05T19:57:20.059Z,76.70
2018-06-05T19:59:48.595Z,75.40
2018-06-05T20:02:16.897Z,75.50
2018-06-05T20:04:45.208Z,75.90
2018-06-05T20:07:13.670Z,78.30
2018-06-05T20:09:42.062Z,78.10
2018-06-05T20:12:10.632Z,79.10
2018-06-05T20:14:39.103Z,80.10
2018-06-05T20:17:07.409Z,79.90
2018-06-05T20:19:35.829Z,80.50
2018-06-05T20:22:04.431Z,80.80
2018-06-05T20:27:01.017Z,81.50
2018-06-05T20:29:29.312Z,82.40
2018-06-05T20:31:57.605Z,82.90
2018-06-05T20:34:26.066Z,83.80
2018-06-05T20:36:54.418Z,84.80
2018-06-05T20:39:22.837Z,85.30
2018-06-05T20:41:51.251Z,85.80
2018-06-05T20:44:19.681Z,84.50
2018-06-05T20:46:48.021Z,85.10
2018-06-05T20:49:16.483Z,86.70
2018-06-05T20:51:44.793Z,86.50
2018-06-05T20:54:13.120Z,86.20
2018-06-05T20:56:41.412Z,86.80
2018-06-05T20:59:09.724Z,86.00
2018-06-05T21:01:38.014Z,86.90
2018-06-05T21:04:06.342Z,88.50
2018-06-05T21:06:34.641Z,88.70
2018-06-05T21:09:03.001Z,88.50
2018-06-05T21:11:31.281Z,89.40
2018-06-05T21:13:59.561Z,89.60
2018-06-05T21:16:27.853Z,88.90
2018-06-05T21:18:56.131Z,88.80
2018-06-05T21:21:24.491Z,88.40
2018-06-05T21:23:52.835Z,88.20
2018-06-05T21:26:21.132Z,89.40
2018-06-05T21:28:49.413Z,88.80
2018-06-05T21:31:17.734Z,88.90
2018-06-05T21:33:46.026Z,89.20
2018-06-05T21:36:14.302Z,90.10
2018-06-05T21:38:42.617Z,90.60
2018-06-05T21:41:10.949Z,89.20
2018-06-05T21:43:39.250Z,89.60
2018-06-05T21:46:07.546Z,90.50
2018-06-05T21:48:35.853Z,90.50
2018-06-05T21:51:04.136Z,90.30
2018-06-05T21:53:32.443Z,90.80
2018-06-05T21:56:00.765Z,91.10
2018-06-05T21:58:29.038Z,91.10
2018-06-05T22:00:57.345Z,91.10
2018-06-05T22:03:25.604Z,91.10
2018-06-05T22:05:53.891Z,91.20
2018-06-05T22:08:22.178Z,91.70
2018-06-05T22:10:50.477Z,91.30
2018-06-05T22:13:18.765Z,91.60
2018-06-05T22:15:47.074Z,91.80
2018-06-05T22:18:15.452Z,91.60
2018-06-05T22:20:43.736Z,92.20
2018-06-05T22:23:12.032Z,92.00
2018-06-05T22:25:40.406Z,92.20
2018-06-05T22:28:08.875Z,92.60
2018-06-05T22:30:37.174Z,93.00
2018-06-05T22:33:05.470Z,93.00
2018-06-05T22:35:33.770Z,92.80
2018-06-05T22:38:02.069Z,92.70
2018-06-05T22:40:30.360Z,92.70
2018-06-05T22:42:58.679Z,93.30
2018-06-05T22:45:26.977Z,93.40
2018-06-05T22:47:55.282Z,93.30
2018-06-05T22:50:23.581Z,93.50
2018-06-05T22:52:51.908Z,93.50
2018-06-05T22:55:20.325Z,93.90
2018-06-05T22:57:48.642Z,93.90
2018-06-05T23:00:22.880Z,94.10
2018-06-05T23:02:51.164Z,94.00
2018-06-05T23:05:19.465Z,94.00
2018-06-05T23:07:47.756Z,94.00
2018-06-05T23:10:16.060Z,94.00
2018-06-05T23:12:44.385Z,93.90
2018-06-05T23:15:12.693Z,94.00
2018-06-05T23:17:41.029Z,94.00
2018-06-05T23:20:09.329Z,93.80
2018-06-05T23:22:37.649Z,94.00
2018-06-05T23:25:06.011Z,94.20
2018-06-05T23:27:34.311Z,94.20
2018-06-05T23:30:02.625Z,94.40
2018-06-05T23:32:30.904Z,94.00
2018-06-05T23:34:59.214Z,94.00
2018-06-05T23:37:27.532Z,94.20
2018-06-05T23:39:55.833Z,94.40
2018-06-05T23:42:24.168Z,94.20
2018-06-05T23:44:52.479Z,94.50
2018-06-05T23:47:20.795Z,94.50
2018-06-05T23:49:49.060Z,94.50
2018-06-05T23:52:17.392Z,94.10
2018-06-05T23:54:52.068Z,94.50
2018-06-05T23:57:20.377Z,94.30
2018-06-05T23:59:48.652Z,94.50
